Bookmark and Share
Track history (hours):
 

Kinrikimaru

Last reported at 2014-Apr-25 05:33 UTC. Time now 2014-Apr-25 06:20 UTC.
Position N 34°37' E 135°18'.

Length 76 m; draft 4.4 m.

Type: Cargo ship. MMSI: 431500615.

NotesDate/timePositionNaut miles runAvg speedWind from/ knotsBaromVisibWave heightAir tempDewpointWater temp
2014-Apr-25 05:33N 34°37' E 135°18'6 6.5
2014-Apr-25 04:33N 34°35' E 135°26'0 0.0
2014-Apr-25 03:33N 34°35' E 135°26'0 0.0
2014-Apr-25 02:33N 34°35' E 135°26'0 0.0
2014-Apr-25 01:33N 34°35' E 135°26'0 0.0
2014-Apr-25 00:33N 34°35' E 135°26'0 0.0
2014-Apr-24 23:33N 34°35' E 135°26'1 0.5
2014-Apr-24 22:13N 34°35' E 135°25'0 0.0
2014-Apr-24 20:31N 34°35' E 135°25'0 0.0
2014-Apr-24 18:31N 34°35' E 135°25'0 0.0
2014-Apr-24 17:19N 34°35' E 135°25'0 0.0
2014-Apr-24 16:19N 34°35' E 135°25'0 0.0
2014-Apr-24 15:13N 34°35' E 135°25'0 0.0
2014-Apr-24 10:33N 34°35' E 135°25'1010.4
2014-Apr-24 09:33N 34°35' E 135°13'1211.3
2014-Apr-24 08:30N 34°37' E 134°58'235 6.5
2014-Apr-22 20:32N 33°53' E 130°19'2512.5
2014-Apr-22 18:32N 33°40' E 129°53'1 0.0
2014-Apr-20 16:16N 33°40' E 129°53'911.9
2014-Apr-20 15:33N 33°44' E 130°02'1512.2
2014-Apr-20 14:20N 33°52' E 130°17'  
2014-Apr-16 07:33N 34°36' E 135°05'1211.7
2014-Apr-16 06:33N 34°37' E 135°19'5 5.2
2014-Apr-16 05:33N 34°35' E 135°25'0 0.2
2014-Apr-16 04:17N 34°35' E 135°26'0 0.0
2014-Apr-16 03:29N 34°35' E 135°26'0 0.0
2014-Apr-16 02:23N 34°35' E 135°26'0 0.0
2014-Apr-16 01:29N 34°35' E 135°26'0 0.0
2014-Apr-15 23:23N 34°35' E 135°26'0 0.3
2014-Apr-15 22:16N 34°35' E 135°25'3 4.1
2014-Apr-15 21:33N 34°36' E 135°22'1312.5
2014-Apr-15 20:33N 34°27' E 135°11'1311.9
2014-Apr-15 19:26N 34°18' E 135°00'1011.1
2014-Apr-15 18:33N 34°08' E 134°57'  

Dump ship's entire track history

sailing weather and tide predictions

Kinrikimaru — JL6545 — position and weather